createdAt,value
2022-12-12T00:02:10.983Z,16.95
2022-12-12T00:04:37.657Z,16.83
2022-12-12T00:07:04.340Z,16.73
2022-12-12T00:09:30.867Z,17.35
2022-12-12T00:11:57.413Z,16.40
2022-12-12T00:14:23.930Z,17.38
2022-12-12T00:16:50.420Z,17.75
2022-12-12T00:19:16.986Z,16.92
2022-12-12T00:21:43.545Z,18.00
2022-12-12T00:24:10.816Z,16.90
2022-12-12T00:26:37.424Z,16.85
2022-12-12T00:29:04.492Z,16.50
2022-12-12T00:31:31.443Z,17.63
2022-12-12T00:33:58.385Z,16.80
2022-12-12T00:36:28.623Z,18.52
2022-12-12T00:38:55.715Z,17.45
2022-12-12T00:41:22.797Z,18.15
2022-12-12T00:43:49.894Z,17.42
2022-12-12T00:46:18.932Z,17.63
2022-12-12T00:48:45.550Z,17.23
2022-12-12T00:51:19.795Z,17.27
2022-12-12T00:53:47.221Z,17.95
2022-12-12T00:56:16.148Z,16.10
2022-12-12T00:58:43.037Z,17.98
2022-12-12T01:01:15.229Z,17.45
2022-12-12T01:03:42.489Z,16.88
2022-12-12T01:06:10.148Z,17.98
2022-12-12T01:08:38.021Z,17.98
2022-12-12T01:11:05.428Z,17.27
2022-12-12T01:13:32.137Z,17.38
2022-12-12T01:15:58.928Z,18.25
2022-12-12T01:18:25.701Z,17.90
2022-12-12T01:20:52.571Z,17.52
2022-12-12T01:23:19.315Z,17.52
2022-12-12T01:25:45.937Z,18.00
2022-12-12T01:28:12.837Z,18.10
2022-12-12T01:30:39.461Z,16.35
2022-12-12T01:33:06.113Z,16.80
2022-12-12T01:35:34.548Z,17.70
2022-12-12T01:38:01.123Z,18.35
2022-12-12T01:40:30.613Z,17.92
2022-12-12T01:42:57.259Z,17.23
2022-12-12T01:45:57.884Z,17.95
2022-12-12T01:48:30.275Z,16.67
2022-12-12T01:50:59.721Z,18.02
2022-12-12T01:53:29.568Z,17.95
2022-12-12T01:55:57.396Z,18.50
2022-12-12T01:58:24.861Z,17.17
2022-12-12T02:00:51.896Z,17.90
2022-12-12T02:03:18.579Z,17.50
2022-12-12T02:05:54.789Z,16.70
2022-12-12T02:08:23.150Z,17.85
2022-12-12T02:10:50.000Z,17.40
2022-12-12T02:13:20.419Z,16.45
2022-12-12T02:16:23.745Z,17.63
2022-12-12T02:19:11.835Z,17.83
2022-12-12T02:21:42.238Z,17.48
2022-12-12T02:24:40.805Z,17.92
2022-12-12T02:27:44.852Z,17.00
2022-12-12T02:30:18.299Z,16.92
2022-12-12T02:32:50.171Z,16.83
2022-12-12T02:35:35.052Z,16.60
2022-12-12T02:38:34.455Z,17.03
2022-12-12T02:41:45.857Z,17.20
2022-12-12T02:44:24.616Z,17.98
2022-12-12T02:47:04.033Z,17.23
2022-12-12T02:49:38.875Z,17.08
2022-12-12T02:52:07.085Z,17.52
2022-12-12T02:54:34.753Z,16.70
2022-12-12T02:57:02.383Z,16.80
2022-12-12T02:59:40.279Z,18.08
2022-12-12T03:02:25.409Z,18.73
2022-12-12T03:05:28.989Z,17.58
2022-12-12T03:08:36.553Z,17.60
2022-12-12T03:11:12.826Z,18.05
2022-12-12T03:13:46.155Z,18.15
2022-12-12T03:16:38.747Z,18.77
2022-12-12T03:19:27.115Z,18.17
2022-12-12T03:22:07.120Z,18.98
2022-12-12T03:25:03.288Z,18.38
2022-12-12T03:27:47.238Z,18.65
2022-12-12T03:30:16.423Z,18.98
2022-12-12T03:32:50.823Z,18.63
2022-12-12T03:35:26.298Z,18.00
2022-12-12T03:40:33.318Z,17.17
2022-12-12T03:43:07.591Z,18.27
2022-12-12T03:45:53.883Z,18.85
2022-12-12T03:48:29.311Z,17.38
2022-12-12T03:53:38.460Z,17.30
2022-12-12T03:56:31.695Z,16.85
2022-12-12T03:59:14.800Z,19.55
2022-12-12T04:01:50.018Z,17.60
2022-12-12T04:04:41.697Z,19.75
2022-12-12T04:07:21.807Z,19.58
2022-12-12T04:10:07.656Z,17.95
2022-12-12T04:15:41.283Z,17.38
2022-12-12T04:18:25.455Z,17.15
2022-12-12T04:21:32.802Z,17.65
2022-12-12T04:24:23.627Z,18.10
2022-12-12T04:27:10.251Z,16.83
2022-12-12T04:29:50.732Z,17.50
2022-12-12T04:32:17.155Z,17.42
2022-12-12T04:35:02.250Z,18.15
2022-12-12T04:37:39.089Z,16.90
2022-12-12T04:40:10.399Z,17.63
2022-12-12T04:42:43.391Z,17.38
2022-12-12T04:45:15.460Z,16.50
2022-12-12T04:47:46.660Z,17.27
2022-12-12T04:50:14.292Z,16.48
2022-12-12T04:52:43.309Z,16.80
2022-12-12T04:55:20.004Z,17.60
2022-12-12T04:57:50.192Z,16.88
2022-12-12T05:00:17.470Z,17.30
2022-12-12T05:02:54.595Z,17.65
2022-12-12T05:05:39.453Z,17.48
2022-12-12T05:08:39.289Z,17.83
2022-12-12T05:11:06.855Z,17.65
2022-12-12T05:13:36.952Z,17.33
2022-12-12T05:16:35.220Z,17.88
2022-12-12T05:19:02.759Z,15.95
2022-12-12T05:21:29.285Z,17.35
2022-12-12T05:23:55.906Z,17.55
2022-12-12T05:26:31.557Z,17.88
2022-12-12T05:29:03.669Z,17.20
2022-12-12T05:31:33.357Z,16.98
2022-12-12T05:33:59.932Z,16.30
2022-12-12T05:36:26.611Z,16.58
2022-12-12T05:38:53.228Z,17.02
2022-12-12T05:41:19.878Z,17.88
2022-12-12T05:43:46.500Z,17.13
2022-12-12T05:46:13.805Z,16.48
2022-12-12T05:48:40.659Z,17.33
2022-12-12T05:51:07.271Z,17.33
2022-12-12T05:53:41.981Z,17.25
2022-12-12T05:58:41.728Z,16.75
2022-12-12T06:01:09.109Z,17.23
2022-12-12T06:03:35.769Z,17.13
2022-12-12T06:06:06.573Z,16.58
2022-12-12T06:08:33.240Z,16.88
2022-12-12T06:10:59.865Z,16.45
2022-12-12T06:13:26.426Z,17.35
2022-12-12T06:15:53.018Z,16.73
2022-12-12T06:18:19.683Z,16.58
2022-12-12T06:20:46.274Z,17.67
2022-12-12T06:23:12.961Z,16.25
2022-12-12T06:25:39.657Z,16.45
2022-12-12T06:28:06.225Z,16.90
2022-12-12T06:30:33.484Z,18.13
2022-12-12T06:33:00.036Z,17.05
2022-12-12T06:35:26.605Z,16.63
2022-12-12T06:37:53.161Z,18.05
2022-12-12T06:40:19.748Z,16.33
2022-12-12T06:42:48.442Z,16.85
2022-12-12T06:45:16.134Z,17.33
2022-12-12T06:47:42.880Z,17.98
2022-12-12T06:50:09.661Z,17.48
2022-12-12T06:52:36.189Z,16.83
2022-12-12T06:55:03.005Z,16.60
2022-12-12T06:57:29.600Z,16.60
2022-12-12T06:59:56.284Z,16.73
2022-12-12T07:02:29.295Z,16.50
2022-12-12T07:04:56.867Z,16.48
2022-12-12T07:07:23.519Z,17.40
2022-12-12T07:09:50.152Z,16.33
2022-12-12T07:12:16.684Z,17.00
2022-12-12T07:14:43.301Z,17.23
2022-12-12T07:17:09.825Z,16.35
2022-12-12T07:19:36.379Z,16.80
2022-12-12T07:22:09.310Z,16.50
2022-12-12T07:24:36.860Z,17.80
2022-12-12T07:27:04.172Z,17.90
2022-12-12T07:29:30.733Z,16.70
2022-12-12T07:31:57.539Z,16.50
2022-12-12T07:34:24.182Z,16.33
2022-12-12T07:36:50.882Z,16.92
2022-12-12T07:39:21.000Z,16.23
2022-12-12T07:41:48.245Z,16.98
2022-12-12T07:44:19.549Z,16.58
2022-12-12T07:46:52.202Z,16.55
2022-12-12T07:49:18.794Z,16.55
2022-12-12T07:51:48.885Z,17.48
2022-12-12T07:54:15.841Z,15.55
2022-12-12T07:56:42.449Z,16.25
2022-12-12T07:59:09.105Z,16.42
2022-12-12T08:01:35.780Z,15.70
2022-12-12T08:04:02.390Z,16.50
2022-12-12T08:06:28.929Z,16.67
2022-12-12T08:08:55.479Z,15.95
2022-12-12T08:11:23.888Z,16.92
2022-12-12T08:13:51.187Z,16.38
2022-12-12T08:16:21.246Z,17.88
2022-12-12T08:18:48.942Z,16.58
2022-12-12T08:21:21.459Z,16.80
2022-12-12T08:23:52.259Z,17.17
2022-12-12T08:26:19.061Z,17.55
2022-12-12T08:28:49.093Z,19.35
2022-12-12T08:31:17.529Z,17.27
2022-12-12T08:33:44.675Z,16.33
2022-12-12T08:36:16.354Z,17.30
2022-12-12T08:38:43.646Z,17.83
2022-12-12T08:41:11.527Z,17.35
2022-12-12T08:43:39.488Z,17.30
2022-12-12T08:46:11.004Z,18.10
2022-12-12T08:48:40.352Z,17.65
2022-12-12T08:51:07.344Z,17.33
2022-12-12T08:53:34.176Z,15.98
2022-12-12T08:56:00.831Z,17.58
2022-12-12T08:58:27.435Z,17.30
2022-12-12T09:00:54.101Z,17.70
2022-12-12T09:03:24.785Z,17.38
2022-12-12T09:05:55.448Z,18.05
2022-12-12T09:08:22.123Z,18.02
2022-12-12T09:10:50.528Z,17.63
2022-12-12T09:13:17.346Z,18.02
2022-12-12T09:15:43.919Z,16.83
2022-12-12T09:18:10.475Z,16.63
2022-12-12T09:20:37.026Z,17.45
2022-12-12T09:23:03.645Z,16.60
2022-12-12T09:25:32.057Z,18.00
2022-12-12T09:27:58.877Z,17.08
2022-12-12T09:30:25.448Z,17.75
2022-12-12T09:32:52.028Z,18.27
2022-12-12T09:35:18.524Z,17.70
2022-12-12T09:37:45.073Z,17.35
2022-12-12T09:40:19.255Z,18.40
2022-12-12T09:42:51.480Z,16.65
2022-12-12T09:45:20.122Z,17.92
2022-12-12T09:47:50.694Z,17.55
2022-12-12T09:50:41.698Z,17.23
2022-12-12T09:53:15.802Z,17.98
2022-12-12T09:55:53.658Z,17.95
2022-12-12T09:58:23.667Z,17.67
2022-12-12T10:01:05.079Z,16.85
2022-12-12T10:03:49.541Z,16.52
2022-12-12T10:09:25.128Z,15.55
2022-12-12T10:11:54.960Z,16.27
2022-12-12T10:14:33.005Z,16.77
2022-12-12T10:17:01.949Z,16.42
2022-12-12T10:19:35.278Z,15.68
2022-12-12T10:22:08.215Z,15.90
2022-12-12T10:24:53.283Z,16.98
2022-12-12T10:27:19.939Z,15.60
2022-12-12T10:29:48.638Z,16.42
2022-12-12T10:32:29.526Z,16.83
2022-12-12T10:35:27.001Z,16.58
2022-12-12T10:38:11.888Z,17.60
2022-12-12T10:40:57.645Z,17.20
2022-12-12T10:43:34.444Z,15.98
2022-12-12T10:46:31.046Z,15.80
2022-12-12T10:48:57.903Z,16.02
2022-12-12T10:51:27.890Z,16.00
2022-12-12T10:53:55.517Z,15.55
2022-12-12T10:56:25.688Z,15.85
2022-12-12T10:58:57.428Z,15.70
2022-12-12T11:02:09.216Z,16.02
2022-12-12T11:04:27.704Z,15.38
2022-12-12T11:06:56.262Z,14.15
2022-12-12T11:09:26.850Z,14.45
2022-12-12T11:12:02.055Z,14.18
2022-12-12T11:15:02.140Z,13.75
2022-12-12T11:17:36.067Z,14.30
2022-12-12T11:20:08.207Z,14.00
2022-12-12T11:22:38.761Z,15.68
2022-12-12T11:25:07.332Z,13.80
2022-12-12T11:27:40.580Z,13.32
2022-12-12T11:30:22.555Z,13.45
2022-12-12T11:32:52.085Z,14.55
2022-12-12T11:35:45.636Z,13.98
2022-12-12T11:38:18.715Z,13.90
2022-12-12T11:40:46.914Z,13.45
2022-12-12T11:43:27.478Z,13.43
2022-12-12T11:46:03.122Z,13.50
2022-12-12T11:48:51.579Z,13.48
2022-12-12T11:51:34.839Z,12.55
2022-12-12T11:54:04.716Z,12.95
2022-12-12T11:56:50.104Z,12.52
2022-12-12T11:59:28.584Z,13.07
2022-12-12T12:02:09.319Z,12.63
2022-12-12T12:04:53.228Z,13.25
2022-12-12T12:07:32.618Z,12.93
2022-12-12T12:10:43.605Z,12.63
2022-12-12T12:13:32.372Z,12.30
2022-12-12T12:16:15.819Z,12.20
2022-12-12T12:18:54.444Z,12.02
2022-12-12T12:21:28.746Z,12.27
2022-12-12T12:24:19.696Z,11.75
2022-12-12T12:27:00.933Z,12.52
2022-12-12T12:30:01.143Z,11.18
2022-12-12T12:32:36.719Z,11.07
2022-12-12T12:35:53.026Z,10.68
2022-12-12T12:38:46.584Z,11.10
2022-12-12T12:41:29.369Z,10.38
2022-12-12T12:44:04.415Z,12.05
2022-12-12T12:47:03.167Z,11.77
2022-12-12T12:49:51.716Z,11.10
2022-12-12T12:52:57.057Z,10.95
2022-12-12T12:55:28.688Z,10.43
2022-12-12T12:57:55.315Z,9.63
2022-12-12T13:00:26.713Z,10.23
2022-12-12T13:02:56.396Z,10.02
2022-12-12T13:05:45.341Z,11.00
2022-12-12T13:08:26.917Z,9.77
2022-12-12T13:10:59.680Z,10.10
2022-12-12T13:13:31.405Z,10.10
2022-12-12T13:16:18.048Z,10.57
2022-12-12T13:18:47.992Z,10.13
2022-12-12T13:21:25.050Z,11.02
2022-12-12T13:24:16.996Z,11.55
2022-12-12T13:26:55.776Z,9.80
2022-12-12T13:29:40.111Z,9.45
2022-12-12T13:32:18.898Z,9.50
2022-12-12T13:34:50.816Z,10.80
2022-12-12T13:37:20.919Z,9.65
2022-12-12T13:39:58.508Z,10.40
2022-12-12T13:42:25.172Z,10.10
2022-12-12T13:44:51.908Z,10.13
2022-12-12T13:47:24.628Z,10.48
2022-12-12T13:50:01.068Z,10.93
2022-12-12T13:52:33.085Z,11.98
2022-12-12T13:55:11.632Z,11.77
2022-12-12T13:58:17.155Z,12.40
2022-12-12T14:00:43.936Z,12.93
2022-12-12T14:03:10.475Z,12.32
2022-12-12T14:05:41.128Z,12.80
2022-12-12T14:08:10.690Z,11.20
2022-12-12T14:10:43.563Z,12.68
2022-12-12T14:13:17.386Z,12.30
2022-12-12T14:15:45.296Z,12.18
2022-12-12T14:18:29.965Z,12.63
2022-12-12T14:21:02.332Z,12.38
2022-12-12T14:23:30.477Z,12.63
2022-12-12T14:25:59.792Z,11.75
2022-12-12T14:28:31.915Z,11.70
2022-12-12T14:31:16.500Z,11.95
2022-12-12T14:33:46.077Z,12.45
2022-12-12T14:36:49.685Z,11.23
2022-12-12T14:39:51.559Z,11.82
2022-12-12T14:43:20.522Z,11.40
2022-12-12T14:45:37.253Z,11.88
2022-12-12T14:48:20.564Z,12.73
2022-12-12T14:50:49.767Z,11.60
2022-12-12T14:53:23.675Z,11.10
2022-12-12T14:56:00.437Z,11.25
2022-12-12T14:58:30.286Z,11.18
2022-12-12T15:00:59.822Z,12.20
2022-12-12T15:03:33.718Z,11.38
2022-12-12T15:06:18.756Z,11.23
2022-12-12T15:08:45.433Z,11.53
2022-12-12T15:11:16.841Z,12.32
2022-12-12T15:13:55.140Z,10.85
2022-12-12T15:16:29.740Z,11.63
2022-12-12T15:18:58.714Z,11.75
2022-12-12T15:21:25.695Z,11.07
2022-12-12T15:23:52.351Z,10.90
2022-12-12T15:26:26.295Z,11.73
2022-12-12T15:28:53.431Z,11.80
2022-12-12T15:31:20.839Z,11.52
2022-12-12T15:33:49.332Z,11.35
2022-12-12T15:36:28.383Z,11.68
2022-12-12T15:39:24.483Z,10.82
2022-12-12T15:41:51.149Z,11.57
2022-12-12T15:44:19.945Z,11.40
2022-12-12T15:46:48.282Z,10.60
2022-12-12T15:49:47.129Z,11.25
2022-12-12T15:52:21.199Z,11.02
2022-12-12T15:54:54.749Z,11.30
2022-12-12T15:57:25.764Z,10.95
2022-12-12T15:59:58.282Z,11.25
2022-12-12T16:02:33.037Z,10.95
2022-12-12T16:05:18.116Z,10.80
2022-12-12T16:07:44.953Z,10.40
2022-12-12T16:10:11.681Z,10.65
2022-12-12T16:12:58.591Z,11.10
2022-12-12T16:15:34.066Z,10.48
2022-12-12T16:20:33.174Z,10.85
2022-12-12T16:23:33.567Z,10.57
2022-12-12T16:26:00.185Z,9.93
2022-12-12T16:28:29.444Z,10.65
2022-12-12T16:31:04.408Z,9.95
2022-12-12T16:33:35.016Z,10.30
2022-12-12T16:36:07.617Z,10.68
2022-12-12T16:38:34.868Z,10.80
2022-12-12T16:41:06.756Z,9.85
2022-12-12T16:43:37.052Z,10.73
2022-12-12T16:46:03.834Z,10.50
2022-12-12T16:48:36.007Z,10.90
2022-12-12T16:51:06.183Z,11.13
2022-12-12T16:53:34.977Z,10.70
2022-12-12T16:56:02.716Z,11.15
2022-12-12T16:58:32.319Z,10.35
2022-12-12T17:01:00.340Z,10.95
2022-12-12T17:03:42.657Z,11.57
2022-12-12T17:06:09.292Z,12.77
2022-12-12T17:08:35.951Z,11.45
2022-12-12T17:11:10.040Z,12.77
2022-12-12T17:13:41.216Z,12.70
2022-12-12T17:16:07.861Z,11.65
2022-12-12T17:18:34.501Z,12.27
2022-12-12T17:21:01.035Z,12.35
2022-12-12T17:23:29.130Z,12.55
2022-12-12T17:26:01.062Z,12.55
2022-12-12T17:28:31.946Z,12.73
2022-12-12T17:30:58.689Z,11.88
2022-12-12T17:33:25.633Z,11.38
2022-12-12T17:35:59.571Z,11.27
2022-12-12T17:38:26.251Z,11.75
2022-12-12T17:40:54.012Z,12.32
2022-12-12T17:43:20.652Z,12.45
2022-12-12T17:45:57.328Z,11.23
2022-12-12T17:48:23.879Z,11.75
2022-12-12T17:51:01.645Z,11.93
2022-12-12T17:53:36.656Z,12.35
2022-12-12T17:56:08.182Z,11.18
2022-12-12T17:58:41.206Z,11.63
2022-12-12T18:01:20.685Z,11.18
2022-12-12T18:03:48.143Z,12.98
2022-12-12T18:06:15.811Z,12.63
2022-12-12T18:08:42.758Z,12.18
2022-12-12T18:11:11.628Z,11.43
2022-12-12T18:13:39.812Z,11.77
2022-12-12T18:16:10.620Z,11.98
2022-12-12T18:18:37.303Z,12.38
2022-12-12T18:21:05.859Z,11.25
2022-12-12T18:23:33.145Z,12.48
2022-12-12T18:26:08.910Z,12.00
2022-12-12T18:28:35.988Z,11.80
2022-12-12T18:31:03.632Z,10.98
2022-12-12T18:33:30.488Z,11.82
2022-12-12T18:36:01.771Z,11.85
2022-12-12T18:38:28.940Z,11.90
2022-12-12T18:40:55.561Z,11.23
2022-12-12T18:43:24.199Z,11.73
2022-12-12T18:45:50.868Z,11.43
2022-12-12T18:48:17.417Z,11.63
2022-12-12T18:50:43.940Z,11.43
2022-12-12T18:53:10.438Z,12.15
2022-12-12T18:55:43.614Z,10.60
2022-12-12T18:58:11.026Z,11.18
2022-12-12T19:00:40.309Z,11.05
2022-12-12T19:03:08.080Z,10.77
2022-12-12T19:05:40.396Z,11.50
2022-12-12T19:08:07.473Z,11.43
2022-12-12T19:10:35.978Z,11.63
2022-12-12T19:13:03.015Z,11.38
2022-12-12T19:15:29.748Z,12.00
2022-12-12T19:17:57.388Z,11.20
2022-12-12T19:20:24.949Z,12.35
2022-12-12T19:22:51.583Z,10.55
2022-12-12T19:25:18.859Z,12.02
2022-12-12T19:27:45.628Z,11.82
2022-12-12T19:30:13.608Z,12.10
2022-12-12T19:32:41.782Z,11.85
2022-12-12T19:35:08.614Z,12.95
2022-12-12T19:37:38.260Z,12.05
2022-12-12T19:40:05.253Z,12.50
2022-12-12T19:42:31.734Z,11.77
2022-12-12T19:44:58.236Z,12.65
2022-12-12T19:47:25.443Z,12.18
2022-12-12T19:49:52.022Z,12.90
2022-12-12T19:52:19.689Z,13.38
2022-12-12T19:54:46.332Z,13.73
2022-12-12T19:57:12.856Z,12.32
2022-12-12T19:59:39.528Z,13.73
2022-12-12T20:02:07.118Z,12.40
2022-12-12T20:04:33.709Z,13.30
2022-12-12T20:07:00.284Z,14.45
2022-12-12T20:09:29.268Z,13.93
2022-12-12T20:11:57.913Z,13.65
2022-12-12T20:14:26.903Z,14.38
2022-12-12T20:16:54.464Z,15.02
2022-12-12T20:19:22.343Z,13.68
2022-12-12T20:22:05.609Z,13.77
2022-12-12T20:24:33.681Z,14.13
2022-12-12T20:27:02.952Z,14.93
2022-12-12T20:29:29.437Z,13.65
2022-12-12T20:31:56.016Z,15.18
2022-12-12T20:34:24.399Z,15.02
2022-12-12T20:36:51.846Z,13.35
2022-12-12T20:39:20.878Z,13.48
2022-12-12T20:41:48.540Z,14.20
2022-12-12T20:44:15.323Z,14.05
2022-12-12T20:46:44.482Z,13.05
2022-12-12T20:49:16.114Z,12.73
2022-12-12T20:51:55.179Z,13.05
2022-12-12T20:54:24.419Z,13.23
2022-12-12T20:56:52.233Z,14.02
2022-12-12T20:59:18.819Z,12.85
2022-12-12T21:01:47.117Z,13.38
2022-12-12T21:04:14.146Z,13.00
2022-12-12T21:06:47.781Z,13.95
2022-12-12T21:09:22.791Z,13.87
2022-12-12T21:11:52.074Z,13.90
2022-12-12T21:14:18.823Z,13.93
2022-12-12T21:16:45.344Z,13.90
2022-12-12T21:19:13.642Z,13.55
2022-12-12T21:21:42.076Z,13.45
2022-12-12T21:24:11.963Z,14.48
2022-12-12T21:26:38.911Z,12.90
2022-12-12T21:29:05.813Z,13.30
2022-12-12T21:31:36.813Z,13.68
2022-12-12T21:34:05.303Z,13.77
2022-12-12T21:36:32.585Z,14.07
2022-12-12T21:39:01.127Z,13.38
2022-12-12T21:41:28.367Z,14.57
2022-12-12T21:43:59.381Z,14.75
2022-12-12T21:46:27.545Z,13.23
2022-12-12T21:49:12.716Z,14.20
2022-12-12T21:51:40.777Z,14.02
2022-12-12T21:54:09.426Z,14.30
2022-12-12T21:56:36.044Z,14.10
2022-12-12T21:59:03.370Z,13.40
2022-12-12T22:01:31.889Z,15.15
2022-12-12T22:03:59.497Z,15.52
2022-12-12T22:06:28.615Z,14.95
2022-12-12T22:08:56.305Z,15.43
2022-12-12T22:11:40.485Z,14.52
2022-12-12T22:14:10.824Z,14.27
2022-12-12T22:16:37.739Z,14.55
2022-12-12T22:19:08.082Z,14.55
2022-12-12T22:21:35.487Z,14.27
2022-12-12T22:24:02.524Z,15.23
2022-12-12T22:26:39.316Z,14.52
2022-12-12T22:29:09.907Z,16.35
2022-12-12T22:31:38.130Z,13.45
2022-12-12T22:34:12.348Z,14.68
2022-12-12T22:36:39.759Z,14.13
2022-12-12T22:39:08.460Z,15.38
2022-12-12T22:41:35.077Z,15.13
2022-12-12T22:44:04.091Z,14.80
2022-12-12T22:46:31.387Z,14.65
2022-12-12T22:49:00.336Z,15.00
2022-12-12T22:51:29.726Z,16.70
2022-12-12T22:53:57.952Z,17.02
2022-12-12T22:56:24.556Z,15.50
2022-12-12T22:58:51.095Z,15.32
2022-12-12T23:01:21.205Z,16.15
2022-12-12T23:03:48.550Z,16.23
2022-12-12T23:06:18.548Z,14.38
2022-12-12T23:08:50.894Z,14.70
2022-12-12T23:11:18.688Z,15.45
2022-12-12T23:13:45.653Z,15.35
2022-12-12T23:16:16.257Z,15.32
2022-12-12T23:18:43.844Z,16.25
2022-12-12T23:21:16.756Z,15.98
2022-12-12T23:23:44.845Z,15.75
2022-12-12T23:26:16.773Z,15.82
2022-12-12T23:28:44.246Z,15.85
2022-12-12T23:31:20.079Z,15.90
2022-12-12T23:33:47.004Z,17.00
2022-12-12T23:36:15.195Z,16.23
2022-12-12T23:38:42.515Z,17.13
2022-12-12T23:41:12.442Z,17.38
2022-12-12T23:43:40.283Z,19.23
2022-12-12T23:46:27.945Z,17.70
2022-12-12T23:48:59.410Z,18.65
2022-12-12T23:51:27.864Z,18.13
2022-12-12T23:53:57.682Z,18.08
2022-12-12T23:56:24.803Z,18.52
2022-12-12T23:58:58.472Z,16.85
